sensor_id;sensor_type;location;lat;lon;timestamp;temperature;humidity
9209;DHT22;4639;48.862;9.188;2023-04-03T00:02:17;5.00;99.90
9209;DHT22;4639;48.862;9.188;2023-04-03T00:04:42;5.10;99.90
9209;DHT22;4639;48.862;9.188;2023-04-03T00:07:08;5.10;99.90
9209;DHT22;4639;48.862;9.188;2023-04-03T00:09:33;5.20;99.90
9209;DHT22;4639;48.862;9.188;2023-04-03T00:11:59;5.30;99.90
9209;DHT22;4639;48.862;9.188;2023-04-03T00:14:28;5.20;99.90
9209;DHT22;4639;48.862;9.188;2023-04-03T00:16:53;5.20;99.90
9209;DHT22;4639;48.862;9.188;2023-04-03T00:19:19;5.20;99.90
9209;DHT22;4639;48.862;9.188;2023-04-03T00:21:45;5.30;99.90
9209;DHT22;4639;48.862;9.188;2023-04-03T00:24:11;5.20;99.90
9209;DHT22;4639;48.862;9.188;2023-04-03T00:26:38;5.10;99.90
9209;DHT22;4639;48.862;9.188;2023-04-03T00:29:04;5.10;99.90
9209;DHT22;4639;48.862;9.188;2023-04-03T00:31:29;5.10;99.90
9209;DHT22;4639;48.862;9.188;2023-04-03T00:33:55;5.10;99.90
9209;DHT22;4639;48.862;9.188;2023-04-03T00:36:21;5.20;99.90
9209;DHT22;4639;48.862;9.188;2023-04-03T00:38:46;5.20;99.90
9209;DHT22;4639;48.862;9.188;2023-04-03T00:41:12;5.10;99.90
9209;DHT22;4639;48.862;9.188;2023-04-03T00:43:37;5.10;99.90
9209;DHT22;4639;48.862;9.188;2023-04-03T00:46:03;5.20;99.90
9209;DHT22;4639;48.862;9.188;2023-04-03T00:48:50;5.20;99.90
9209;DHT22;4639;48.862;9.188;2023-04-03T00:51:23;5.20;99.90
9209;DHT22;4639;48.862;9.188;2023-04-03T00:53:53;5.30;99.90
9209;DHT22;4639;48.862;9.188;2023-04-03T00:56:21;5.40;99.90
9209;DHT22;4639;48.862;9.188;2023-04-03T00:58:54;5.20;99.90
9209;DHT22;4639;48.862;9.188;2023-04-03T01:01:24;5.10;99.90
9209;DHT22;4639;48.862;9.188;2023-04-03T01:03:54;5.10;99.90
9209;DHT22;4639;48.862;9.188;2023-04-03T01:06:36;5.00;99.90
9209;DHT22;4639;48.862;9.188;2023-04-03T01:09:05;4.90;99.90
9209;DHT22;4639;48.862;9.188;2023-04-03T01:11:31;5.00;99.90
9209;DHT22;4639;48.862;9.188;2023-04-03T01:13:57;5.00;99.90
9209;DHT22;4639;48.862;9.188;2023-04-03T01:16:22;5.00;99.90
9209;DHT22;4639;48.862;9.188;2023-04-03T01:18:48;4.90;99.90
9209;DHT22;4639;48.862;9.188;2023-04-03T01:26:36;4.90;99.90
9209;DHT22;4639;48.862;9.188;2023-04-03T01:29:01;4.80;99.90
9209;DHT22;4639;48.862;9.188;2023-04-03T01:31:47;4.80;99.90
9209;DHT22;4639;48.862;9.188;2023-04-03T01:34:13;4.70;99.90
9209;DHT22;4639;48.862;9.188;2023-04-03T01:36:38;4.70;99.90
9209;DHT22;4639;48.862;9.188;2023-04-03T01:39:04;4.60;99.90
9209;DHT22;4639;48.862;9.188;2023-04-03T01:41:30;4.70;99.90
9209;DHT22;4639;48.862;9.188;2023-04-03T01:43:55;4.70;99.90
9209;DHT22;4639;48.862;9.188;2023-04-03T01:46:21;4.60;99.90
9209;DHT22;4639;48.862;9.188;2023-04-03T01:48:48;4.60;99.90
9209;DHT22;4639;48.862;9.188;2023-04-03T01:51:14;4.80;99.90
9209;DHT22;4639;48.862;9.188;2023-04-03T01:53:40;4.70;99.90
9209;DHT22;4639;48.862;9.188;2023-04-03T01:56:06;4.70;99.90
9209;DHT22;4639;48.862;9.188;2023-04-03T01:58:31;4.70;99.90
9209;DHT22;4639;48.862;9.188;2023-04-03T02:00:57;4.70;99.90
9209;DHT22;4639;48.862;9.188;2023-04-03T02:03:23;4.70;99.90
9209;DHT22;4639;48.862;9.188;2023-04-03T02:05:49;4.70;99.90
9209;DHT22;4639;48.862;9.188;2023-04-03T02:08:15;4.70;99.90
9209;DHT22;4639;48.862;9.188;2023-04-03T02:10:43;4.80;99.90
9209;DHT22;4639;48.862;9.188;2023-04-03T02:13:10;4.80;99.90
9209;DHT22;4639;48.862;9.188;2023-04-03T02:15:38;4.90;99.90
9209;DHT22;4639;48.862;9.188;2023-04-03T02:18:03;4.70;99.90
9209;DHT22;4639;48.862;9.188;2023-04-03T02:20:29;4.80;99.90
9209;DHT22;4639;48.862;9.188;2023-04-03T02:22:55;4.70;99.90
9209;DHT22;4639;48.862;9.188;2023-04-03T02:25:20;4.60;99.90
9209;DHT22;4639;48.862;9.188;2023-04-03T02:27:49;4.60;99.90
9209;DHT22;4639;48.862;9.188;2023-04-03T02:30:18;4.60;99.90
9209;DHT22;4639;48.862;9.188;2023-04-03T02:32:43;4.60;99.90
9209;DHT22;4639;48.862;9.188;2023-04-03T02:35:11;4.60;99.90
9209;DHT22;4639;48.862;9.188;2023-04-03T02:37:37;4.60;99.90
9209;DHT22;4639;48.862;9.188;2023-04-03T02:40:03;4.70;99.90
9209;DHT22;4639;48.862;9.188;2023-04-03T02:42:30;4.60;99.90
9209;DHT22;4639;48.862;9.188;2023-04-03T02:44:55;4.60;99.90
9209;DHT22;4639;48.862;9.188;2023-04-03T02:47:21;4.60;99.90
9209;DHT22;4639;48.862;9.188;2023-04-03T02:49:47;4.60;99.90
9209;DHT22;4639;48.862;9.188;2023-04-03T02:52:13;4.60;99.90
9209;DHT22;4639;48.862;9.188;2023-04-03T02:54:39;4.70;99.90
9209;DHT22;4639;48.862;9.188;2023-04-03T02:57:05;4.70;99.90
9209;DHT22;4639;48.862;9.188;2023-04-03T02:59:31;4.60;99.90
9209;DHT22;4639;48.862;9.188;2023-04-03T03:01:56;4.70;99.90
9209;DHT22;4639;48.862;9.188;2023-04-03T03:04:22;4.70;99.90
9209;DHT22;4639;48.862;9.188;2023-04-03T03:06:50;4.70;99.90
9209;DHT22;4639;48.862;9.188;2023-04-03T03:09:17;4.70;99.90
9209;DHT22;4639;48.862;9.188;2023-04-03T03:14:18;4.80;99.90
9209;DHT22;4639;48.862;9.188;2023-04-03T03:16:44;4.70;99.90
9209;DHT22;4639;48.862;9.188;2023-04-03T03:19:10;4.60;99.90
9209;DHT22;4639;48.862;9.188;2023-04-03T03:21:35;4.60;99.90
9209;DHT22;4639;48.862;9.188;2023-04-03T03:24:01;4.70;99.90
9209;DHT22;4639;48.862;9.188;2023-04-03T03:26:26;4.60;99.90
9209;DHT22;4639;48.862;9.188;2023-04-03T03:28:52;4.70;99.90
9209;DHT22;4639;48.862;9.188;2023-04-03T03:31:18;4.60;99.90
9209;DHT22;4639;48.862;9.188;2023-04-03T03:33:51;4.60;99.90
9209;DHT22;4639;48.862;9.188;2023-04-03T03:36:16;4.60;99.90
9209;DHT22;4639;48.862;9.188;2023-04-03T03:38:42;4.70;99.90
9209;DHT22;4639;48.862;9.188;2023-04-03T03:41:07;4.70;99.90
9209;DHT22;4639;48.862;9.188;2023-04-03T03:43:33;4.70;99.90
9209;DHT22;4639;48.862;9.188;2023-04-03T03:45:58;4.60;99.90
9209;DHT22;4639;48.862;9.188;2023-04-03T03:48:24;4.70;99.90
9209;DHT22;4639;48.862;9.188;2023-04-03T03:50:50;4.60;99.90
9209;DHT22;4639;48.862;9.188;2023-04-03T03:53:16;4.60;99.90
9209;DHT22;4639;48.862;9.188;2023-04-03T03:55:42;4.60;99.90
9209;DHT22;4639;48.862;9.188;2023-04-03T03:58:07;4.60;99.90
9209;DHT22;4639;48.862;9.188;2023-04-03T04:00:33;4.50;99.90
9209;DHT22;4639;48.862;9.188;2023-04-03T04:02:58;4.60;99.90
9209;DHT22;4639;48.862;9.188;2023-04-03T04:05:24;4.60;99.90
9209;DHT22;4639;48.862;9.188;2023-04-03T04:07:50;4.60;99.90
9209;DHT22;4639;48.862;9.188;2023-04-03T04:10:16;4.60;99.90
9209;DHT22;4639;48.862;9.188;2023-04-03T04:12:42;4.70;99.90
9209;DHT22;4639;48.862;9.188;2023-04-03T04:15:08;4.60;99.90
9209;DHT22;4639;48.862;9.188;2023-04-03T04:17:34;4.70;99.90
9209;DHT22;4639;48.862;9.188;2023-04-03T04:20:01;4.70;99.90
9209;DHT22;4639;48.862;9.188;2023-04-03T04:22:26;4.70;99.90
9209;DHT22;4639;48.862;9.188;2023-04-03T04:24:52;4.70;99.90
9209;DHT22;4639;48.862;9.188;2023-04-03T04:27:17;4.80;99.90
9209;DHT22;4639;48.862;9.188;2023-04-03T04:29:43;4.80;99.90
9209;DHT22;4639;48.862;9.188;2023-04-03T04:32:08;4.90;99.90
9209;DHT22;4639;48.862;9.188;2023-04-03T04:34:34;4.90;99.90
9209;DHT22;4639;48.862;9.188;2023-04-03T04:37:03;4.80;99.90
9209;DHT22;4639;48.862;9.188;2023-04-03T04:39:30;4.70;99.90
9209;DHT22;4639;48.862;9.188;2023-04-03T04:41:56;4.70;99.90
9209;DHT22;4639;48.862;9.188;2023-04-03T04:44:22;4.80;99.90
9209;DHT22;4639;48.862;9.188;2023-04-03T04:46:47;4.80;99.90
9209;DHT22;4639;48.862;9.188;2023-04-03T04:49:13;4.80;99.90
9209;DHT22;4639;48.862;9.188;2023-04-03T04:51:38;4.70;99.90
9209;DHT22;4639;48.862;9.188;2023-04-03T04:54:04;4.80;99.90
9209;DHT22;4639;48.862;9.188;2023-04-03T04:56:30;4.70;99.90
9209;DHT22;4639;48.862;9.188;2023-04-03T04:58:55;4.80;99.90
9209;DHT22;4639;48.862;9.188;2023-04-03T05:01:21;4.80;99.90
9209;DHT22;4639;48.862;9.188;2023-04-03T05:03:46;4.80;99.90
9209;DHT22;4639;48.862;9.188;2023-04-03T05:06:13;4.80;99.90
9209;DHT22;4639;48.862;9.188;2023-04-03T05:08:38;4.70;99.90
9209;DHT22;4639;48.862;9.188;2023-04-03T05:11:04;4.70;99.90
9209;DHT22;4639;48.862;9.188;2023-04-03T05:13:29;4.70;99.90
9209;DHT22;4639;48.862;9.188;2023-04-03T05:15:55;4.70;99.90
9209;DHT22;4639;48.862;9.188;2023-04-03T05:18:21;4.70;99.90
9209;DHT22;4639;48.862;9.188;2023-04-03T05:20:48;4.60;99.90
9209;DHT22;4639;48.862;9.188;2023-04-03T05:23:14;4.60;99.90
9209;DHT22;4639;48.862;9.188;2023-04-03T05:25:40;4.70;99.90
9209;DHT22;4639;48.862;9.188;2023-04-03T05:28:06;4.60;99.90
9209;DHT22;4639;48.862;9.188;2023-04-03T05:30:32;4.60;99.90
9209;DHT22;4639;48.862;9.188;2023-04-03T05:32:58;4.60;99.90
9209;DHT22;4639;48.862;9.188;2023-04-03T05:35:24;4.70;99.90
9209;DHT22;4639;48.862;9.188;2023-04-03T05:37:50;4.70;99.90
9209;DHT22;4639;48.862;9.188;2023-04-03T05:40:16;4.70;99.90
9209;DHT22;4639;48.862;9.188;2023-04-03T05:42:41;4.60;99.90
9209;DHT22;4639;48.862;9.188;2023-04-03T05:45:07;4.60;99.90
9209;DHT22;4639;48.862;9.188;2023-04-03T05:47:33;4.60;99.90
9209;DHT22;4639;48.862;9.188;2023-04-03T05:49:59;4.60;99.90
9209;DHT22;4639;48.862;9.188;2023-04-03T05:52:33;4.60;99.90
9209;DHT22;4639;48.862;9.188;2023-04-03T05:55:00;4.60;99.90
9209;DHT22;4639;48.862;9.188;2023-04-03T05:57:26;4.60;99.90
9209;DHT22;4639;48.862;9.188;2023-04-03T05:59:52;4.60;99.90
9209;DHT22;4639;48.862;9.188;2023-04-03T06:02:20;4.60;99.90
9209;DHT22;4639;48.862;9.188;2023-04-03T06:04:46;4.70;99.90
9209;DHT22;4639;48.862;9.188;2023-04-03T06:07:15;4.70;99.90
9209;DHT22;4639;48.862;9.188;2023-04-03T06:09:41;4.70;99.90
9209;DHT22;4639;48.862;9.188;2023-04-03T06:12:08;4.70;99.90
9209;DHT22;4639;48.862;9.188;2023-04-03T06:14:34;4.60;99.90
9209;DHT22;4639;48.862;9.188;2023-04-03T06:16:59;4.60;99.90
9209;DHT22;4639;48.862;9.188;2023-04-03T06:19:25;4.60;99.90
9209;DHT22;4639;48.862;9.188;2023-04-03T06:21:51;4.60;99.90
9209;DHT22;4639;48.862;9.188;2023-04-03T06:24:17;4.60;99.90
9209;DHT22;4639;48.862;9.188;2023-04-03T06:26:43;4.70;99.90
9209;DHT22;4639;48.862;9.188;2023-04-03T06:29:09;4.70;99.90
9209;DHT22;4639;48.862;9.188;2023-04-03T06:31:35;4.70;99.90
9209;DHT22;4639;48.862;9.188;2023-04-03T06:34:02;4.70;99.90
9209;DHT22;4639;48.862;9.188;2023-04-03T06:36:28;4.80;99.90
9209;DHT22;4639;48.862;9.188;2023-04-03T06:38:54;4.80;99.90
9209;DHT22;4639;48.862;9.188;2023-04-03T06:41:20;4.80;99.90
9209;DHT22;4639;48.862;9.188;2023-04-03T06:43:46;4.80;99.90
9209;DHT22;4639;48.862;9.188;2023-04-03T06:46:16;4.80;99.90
9209;DHT22;4639;48.862;9.188;2023-04-03T06:48:43;4.80;99.90
9209;DHT22;4639;48.862;9.188;2023-04-03T06:51:24;4.80;99.90
9209;DHT22;4639;48.862;9.188;2023-04-03T06:53:51;4.80;99.90
9209;DHT22;4639;48.862;9.188;2023-04-03T06:56:18;4.80;99.90
9209;DHT22;4639;48.862;9.188;2023-04-03T06:58:44;4.80;99.90
9209;DHT22;4639;48.862;9.188;2023-04-03T07:01:11;4.70;99.90
9209;DHT22;4639;48.862;9.188;2023-04-03T07:03:38;4.70;99.90
9209;DHT22;4639;48.862;9.188;2023-04-03T07:06:04;4.80;99.90
9209;DHT22;4639;48.862;9.188;2023-04-03T07:08:31;4.90;99.90
9209;DHT22;4639;48.862;9.188;2023-04-03T07:10:56;4.90;99.90
9209;DHT22;4639;48.862;9.188;2023-04-03T07:13:22;5.00;99.90
9209;DHT22;4639;48.862;9.188;2023-04-03T07:15:48;5.10;99.90
9209;DHT22;4639;48.862;9.188;2023-04-03T07:18:13;5.10;99.90
9209;DHT22;4639;48.862;9.188;2023-04-03T07:20:39;5.30;99.90
9209;DHT22;4639;48.862;9.188;2023-04-03T07:23:05;5.40;99.90
9209;DHT22;4639;48.862;9.188;2023-04-03T07:25:31;5.50;99.90
9209;DHT22;4639;48.862;9.188;2023-04-03T07:27:57;5.50;99.90
9209;DHT22;4639;48.862;9.188;2023-04-03T07:30:23;5.50;99.90
9209;DHT22;4639;48.862;9.188;2023-04-03T07:32:49;5.60;99.90
9209;DHT22;4639;48.862;9.188;2023-04-03T07:35:14;5.70;99.90
9209;DHT22;4639;48.862;9.188;2023-04-03T07:37:40;5.80;99.90
9209;DHT22;4639;48.862;9.188;2023-04-03T07:40:06;5.90;99.90
9209;DHT22;4639;48.862;9.188;2023-04-03T07:42:32;6.30;99.90
9209;DHT22;4639;48.862;9.188;2023-04-03T07:44:57;6.70;99.90
9209;DHT22;4639;48.862;9.188;2023-04-03T07:47:23;7.00;99.90
9209;DHT22;4639;48.862;9.188;2023-04-03T07:49:49;7.10;99.90
9209;DHT22;4639;48.862;9.188;2023-04-03T07:52:14;7.20;99.90
9209;DHT22;4639;48.862;9.188;2023-04-03T07:54:41;7.60;99.90
9209;DHT22;4639;48.862;9.188;2023-04-03T07:57:07;7.80;99.90
9209;DHT22;4639;48.862;9.188;2023-04-03T07:59:32;8.30;99.90
9209;DHT22;4639;48.862;9.188;2023-04-03T08:01:58;8.30;99.90
9209;DHT22;4639;48.862;9.188;2023-04-03T08:04:23;8.00;99.90
9209;DHT22;4639;48.862;9.188;2023-04-03T08:06:50;7.90;99.90
9209;DHT22;4639;48.862;9.188;2023-04-03T08:09:16;7.90;99.90
9209;DHT22;4639;48.862;9.188;2023-04-03T08:11:42;7.80;99.90
9209;DHT22;4639;48.862;9.188;2023-04-03T08:14:07;7.70;99.90
9209;DHT22;4639;48.862;9.188;2023-04-03T08:16:33;7.80;99.90
9209;DHT22;4639;48.862;9.188;2023-04-03T08:18:59;7.80;99.90
9209;DHT22;4639;48.862;9.188;2023-04-03T08:21:24;7.90;99.90
9209;DHT22;4639;48.862;9.188;2023-04-03T08:23:50;7.90;99.90
9209;DHT22;4639;48.862;9.188;2023-04-03T08:26:19;7.80;99.90
9209;DHT22;4639;48.862;9.188;2023-04-03T08:28:44;7.60;99.90
9209;DHT22;4639;48.862;9.188;2023-04-03T08:31:12;7.60;99.90
9209;DHT22;4639;48.862;9.188;2023-04-03T08:33:39;7.60;99.90
9209;DHT22;4639;48.862;9.188;2023-04-03T08:36:06;7.50;99.90
9209;DHT22;4639;48.862;9.188;2023-04-03T08:38:33;7.30;99.90
9209;DHT22;4639;48.862;9.188;2023-04-03T08:41:15;7.50;99.90
9209;DHT22;4639;48.862;9.188;2023-04-03T08:46:42;7.50;99.90
9209;DHT22;4639;48.862;9.188;2023-04-03T08:49:26;7.40;99.90
9209;DHT22;4639;48.862;9.188;2023-04-03T08:51:54;7.30;99.90
9209;DHT22;4639;48.862;9.188;2023-04-03T08:54:50;7.30;99.90
9209;DHT22;4639;48.862;9.188;2023-04-03T08:57:20;7.20;99.90
9209;DHT22;4639;48.862;9.188;2023-04-03T08:59:48;7.30;99.90
9209;DHT22;4639;48.862;9.188;2023-04-03T09:02:29;7.70;99.90
9209;DHT22;4639;48.862;9.188;2023-04-03T09:04:55;7.90;99.90
9209;DHT22;4639;48.862;9.188;2023-04-03T09:07:38;8.00;99.90
9209;DHT22;4639;48.862;9.188;2023-04-03T09:10:05;8.10;99.90
9209;DHT22;4639;48.862;9.188;2023-04-03T09:12:39;8.20;99.90
9209;DHT22;4639;48.862;9.188;2023-04-03T09:15:19;8.20;99.90
9209;DHT22;4639;48.862;9.188;2023-04-03T09:18:05;8.00;99.90
9209;DHT22;4639;48.862;9.188;2023-04-03T09:20:38;7.80;99.90
9209;DHT22;4639;48.862;9.188;2023-04-03T09:23:40;7.70;99.90
9209;DHT22;4639;48.862;9.188;2023-04-03T09:26:08;7.50;99.90
9209;DHT22;4639;48.862;9.188;2023-04-03T09:28:38;7.50;99.90
9209;DHT22;4639;48.862;9.188;2023-04-03T09:31:20;7.50;99.90
9209;DHT22;4639;48.862;9.188;2023-04-03T09:33:49;7.70;99.90
9209;DHT22;4639;48.862;9.188;2023-04-03T09:36:37;7.80;99.90
9209;DHT22;4639;48.862;9.188;2023-04-03T09:39:05;7.90;99.90
9209;DHT22;4639;48.862;9.188;2023-04-03T09:41:31;7.80;99.90
9209;DHT22;4639;48.862;9.188;2023-04-03T09:43:58;7.90;99.90
9209;DHT22;4639;48.862;9.188;2023-04-03T09:46:31;7.80;99.90
9209;DHT22;4639;48.862;9.188;2023-04-03T09:49:04;7.90;99.90
9209;DHT22;4639;48.862;9.188;2023-04-03T09:51:30;7.90;99.90
9209;DHT22;4639;48.862;9.188;2023-04-03T09:53:57;7.90;99.90
9209;DHT22;4639;48.862;9.188;2023-04-03T09:56:30;7.90;99.90
9209;DHT22;4639;48.862;9.188;2023-04-03T10:04:13;8.10;99.90
9209;DHT22;4639;48.862;9.188;2023-04-03T10:06:44;7.90;99.90
9209;DHT22;4639;48.862;9.188;2023-04-03T10:09:26;7.80;99.90
9209;DHT22;4639;48.862;9.188;2023-04-03T10:14:28;7.90;99.90
9209;DHT22;4639;48.862;9.188;2023-04-03T10:19:35;7.70;99.90
9209;DHT22;4639;48.862;9.188;2023-04-03T10:25:12;7.50;99.90
9209;DHT22;4639;48.862;9.188;2023-04-03T10:27:56;7.50;99.90
9209;DHT22;4639;48.862;9.188;2023-04-03T10:33:28;7.50;99.90
9209;DHT22;4639;48.862;9.188;2023-04-03T10:36:23;7.60;99.90
9209;DHT22;4639;48.862;9.188;2023-04-03T10:41:45;7.70;99.90
9209;DHT22;4639;48.862;9.188;2023-04-03T10:44:20;7.70;99.90
9209;DHT22;4639;48.862;9.188;2023-04-03T10:46:59;7.50;99.90
9209;DHT22;4639;48.862;9.188;2023-04-03T10:52:33;7.50;99.90
9209;DHT22;4639;48.862;9.188;2023-04-03T10:57:49;7.50;99.90
9209;DHT22;4639;48.862;9.188;2023-04-03T11:00:21;7.50;99.90
9209;DHT22;4639;48.862;9.188;2023-04-03T11:02:57;7.60;99.90
9209;DHT22;4639;48.862;9.188;2023-04-03T11:05:48;7.70;99.90
9209;DHT22;4639;48.862;9.188;2023-04-03T11:08:28;7.70;99.90
9209;DHT22;4639;48.862;9.188;2023-04-03T11:11:24;7.70;99.90
9209;DHT22;4639;48.862;9.188;2023-04-03T11:13:52;7.80;99.90
9209;DHT22;4639;48.862;9.188;2023-04-03T11:16:24;7.70;99.90
9209;DHT22;4639;48.862;9.188;2023-04-03T11:24:25;7.70;99.90
9209;DHT22;4639;48.862;9.188;2023-04-03T11:26:53;7.70;99.90
9209;DHT22;4639;48.862;9.188;2023-04-03T11:29:22;7.60;99.90
9209;DHT22;4639;48.862;9.188;2023-04-03T11:32:07;7.60;99.90
9209;DHT22;4639;48.862;9.188;2023-04-03T11:34:49;7.50;99.90
9209;DHT22;4639;48.862;9.188;2023-04-03T11:42:48;7.60;99.90
9209;DHT22;4639;48.862;9.188;2023-04-03T11:50:43;7.80;99.90
9209;DHT22;4639;48.862;9.188;2023-04-03T12:08:46;8.20;99.90
9209;DHT22;4639;48.862;9.188;2023-04-03T12:19:38;8.10;99.90
9209;DHT22;4639;48.862;9.188;2023-04-03T12:22:14;8.00;99.90
9209;DHT22;4639;48.862;9.188;2023-04-03T12:24:43;8.00;99.90
9209;DHT22;4639;48.862;9.188;2023-04-03T12:27:39;8.10;99.90
9209;DHT22;4639;48.862;9.188;2023-04-03T12:30:35;8.40;99.90
9209;DHT22;4639;48.862;9.188;2023-04-03T12:36:13;8.60;99.90
9209;DHT22;4639;48.862;9.188;2023-04-03T12:41:30;8.60;99.90
9209;DHT22;4639;48.862;9.188;2023-04-03T12:46:46;8.40;99.90
9209;DHT22;4639;48.862;9.188;2023-04-03T12:49:35;8.40;99.90
9209;DHT22;4639;48.862;9.188;2023-04-03T12:52:30;8.30;99.90
9209;DHT22;4639;48.862;9.188;2023-04-03T12:54:51;8.20;99.90
9209;DHT22;4639;48.862;9.188;2023-04-03T12:57:26;8.10;99.90
9209;DHT22;4639;48.862;9.188;2023-04-03T12:59:53;8.10;99.90
9209;DHT22;4639;48.862;9.188;2023-04-03T13:04:46;8.10;99.90
9209;DHT22;4639;48.862;9.188;2023-04-03T13:07:23;8.10;99.90
9209;DHT22;4639;48.862;9.188;2023-04-03T13:12:32;8.00;99.90
9209;DHT22;4639;48.862;9.188;2023-04-03T13:15:01;8.10;99.90
9209;DHT22;4639;48.862;9.188;2023-04-03T13:17:28;8.10;99.90
9209;DHT22;4639;48.862;9.188;2023-04-03T13:19:54;8.20;99.90
9209;DHT22;4639;48.862;9.188;2023-04-03T13:24:55;8.00;99.90
9209;DHT22;4639;48.862;9.188;2023-04-03T13:27:23;8.00;99.90
9209;DHT22;4639;48.862;9.188;2023-04-03T13:29:54;8.10;99.90
9209;DHT22;4639;48.862;9.188;2023-04-03T13:32:23;8.20;99.90
9209;DHT22;4639;48.862;9.188;2023-04-03T13:34:50;8.40;99.90
9209;DHT22;4639;48.862;9.188;2023-04-03T13:37:33;8.50;99.90
9209;DHT22;4639;48.862;9.188;2023-04-03T13:42:34;9.00;99.90
9209;DHT22;4639;48.862;9.188;2023-04-03T13:45:24;9.30;99.90
9209;DHT22;4639;48.862;9.188;2023-04-03T13:47:53;9.60;99.90
9209;DHT22;4639;48.862;9.188;2023-04-03T13:50:25;9.70;99.90
9209;DHT22;4639;48.862;9.188;2023-04-03T13:55:28;9.70;99.90
9209;DHT22;4639;48.862;9.188;2023-04-03T13:58:16;9.60;99.90
9209;DHT22;4639;48.862;9.188;2023-04-03T14:00:51;9.40;99.90
9209;DHT22;4639;48.862;9.188;2023-04-03T14:03:30;9.30;99.90
9209;DHT22;4639;48.862;9.188;2023-04-03T14:05:56;9.20;99.90
9209;DHT22;4639;48.862;9.188;2023-04-03T14:08:22;9.20;99.90
9209;DHT22;4639;48.862;9.188;2023-04-03T14:10:49;9.20;99.90
9209;DHT22;4639;48.862;9.188;2023-04-03T14:13:18;9.20;99.90
9209;DHT22;4639;48.862;9.188;2023-04-03T14:15:45;9.30;99.90
9209;DHT22;4639;48.862;9.188;2023-04-03T14:18:17;9.20;99.90
9209;DHT22;4639;48.862;9.188;2023-04-03T14:20:44;9.10;99.90
9209;DHT22;4639;48.862;9.188;2023-04-03T14:23:09;8.90;99.90
9209;DHT22;4639;48.862;9.188;2023-04-03T14:25:36;8.90;99.90
9209;DHT22;4639;48.862;9.188;2023-04-03T14:28:19;8.90;99.90
9209;DHT22;4639;48.862;9.188;2023-04-03T14:30:47;9.00;99.90
9209;DHT22;4639;48.862;9.188;2023-04-03T14:33:16;9.10;99.90
9209;DHT22;4639;48.862;9.188;2023-04-03T14:35:42;9.30;99.90
9209;DHT22;4639;48.862;9.188;2023-04-03T14:38:37;9.30;99.90
9209;DHT22;4639;48.862;9.188;2023-04-03T14:41:02;9.30;99.90
9209;DHT22;4639;48.862;9.188;2023-04-03T14:43:28;9.20;99.90
9209;DHT22;4639;48.862;9.188;2023-04-03T14:45:54;9.30;99.90
9209;DHT22;4639;48.862;9.188;2023-04-03T14:48:22;9.00;99.90
9209;DHT22;4639;48.862;9.188;2023-04-03T14:50:49;9.00;99.90
9209;DHT22;4639;48.862;9.188;2023-04-03T14:53:15;9.10;99.90
9209;DHT22;4639;48.862;9.188;2023-04-03T14:55:44;9.20;99.90
9209;DHT22;4639;48.862;9.188;2023-04-03T14:58:19;9.20;99.90
9209;DHT22;4639;48.862;9.188;2023-04-03T15:00:45;9.20;99.90
9209;DHT22;4639;48.862;9.188;2023-04-03T15:03:16;9.30;99.90
9209;DHT22;4639;48.862;9.188;2023-04-03T15:05:44;9.50;99.90
9209;DHT22;4639;48.862;9.188;2023-04-03T15:08:23;9.80;99.90
9209;DHT22;4639;48.862;9.188;2023-04-03T15:10:50;10.20;99.90
9209;DHT22;4639;48.862;9.188;2023-04-03T15:13:18;10.80;99.90
9209;DHT22;4639;48.862;9.188;2023-04-03T15:15:44;11.40;99.90
9209;DHT22;4639;48.862;9.188;2023-04-03T15:18:26;11.50;99.90
9209;DHT22;4639;48.862;9.188;2023-04-03T15:20:53;11.30;99.90
9209;DHT22;4639;48.862;9.188;2023-04-03T15:23:19;10.80;99.90
9209;DHT22;4639;48.862;9.188;2023-04-03T15:25:46;10.40;99.90
9209;DHT22;4639;48.862;9.188;2023-04-03T15:28:23;10.10;99.90
9209;DHT22;4639;48.862;9.188;2023-04-03T15:30:50;9.70;99.90
9209;DHT22;4639;48.862;9.188;2023-04-03T15:33:15;9.40;99.90
9209;DHT22;4639;48.862;9.188;2023-04-03T15:35:42;9.10;99.90
9209;DHT22;4639;48.862;9.188;2023-04-03T15:38:08;9.00;99.90
9209;DHT22;4639;48.862;9.188;2023-04-03T15:40:34;8.90;99.90
9209;DHT22;4639;48.862;9.188;2023-04-03T15:43:00;9.30;99.90
9209;DHT22;4639;48.862;9.188;2023-04-03T15:45:28;9.70;99.90
9209;DHT22;4639;48.862;9.188;2023-04-03T15:47:54;10.20;99.90
9209;DHT22;4639;48.862;9.188;2023-04-03T15:50:21;10.60;99.90
9209;DHT22;4639;48.862;9.188;2023-04-03T15:52:48;10.50;99.90
9209;DHT22;4639;48.862;9.188;2023-04-03T15:55:16;10.40;99.90
9209;DHT22;4639;48.862;9.188;2023-04-03T15:57:42;10.50;99.90
9209;DHT22;4639;48.862;9.188;2023-04-03T16:00:08;10.80;99.90
9209;DHT22;4639;48.862;9.188;2023-04-03T16:02:34;11.10;99.90
9209;DHT22;4639;48.862;9.188;2023-04-03T16:04:59;10.80;99.90
9209;DHT22;4639;48.862;9.188;2023-04-03T16:07:25;10.40;99.90
9209;DHT22;4639;48.862;9.188;2023-04-03T16:09:51;10.10;99.90
9209;DHT22;4639;48.862;9.188;2023-04-03T16:12:17;9.70;99.90
9209;DHT22;4639;48.862;9.188;2023-04-03T16:14:43;9.30;99.90
9209;DHT22;4639;48.862;9.188;2023-04-03T16:17:08;9.00;99.90
9209;DHT22;4639;48.862;9.188;2023-04-03T16:19:34;8.80;99.90
9209;DHT22;4639;48.862;9.188;2023-04-03T16:22:00;8.60;99.90
9209;DHT22;4639;48.862;9.188;2023-04-03T16:24:25;8.50;99.90
9209;DHT22;4639;48.862;9.188;2023-04-03T16:26:51;8.50;99.90
9209;DHT22;4639;48.862;9.188;2023-04-03T16:29:18;8.80;99.90
9209;DHT22;4639;48.862;9.188;2023-04-03T16:31:44;9.10;99.90
9209;DHT22;4639;48.862;9.188;2023-04-03T16:34:10;9.20;99.90
9209;DHT22;4639;48.862;9.188;2023-04-03T16:36:35;9.20;99.90
9209;DHT22;4639;48.862;9.188;2023-04-03T16:39:02;9.20;99.90
9209;DHT22;4639;48.862;9.188;2023-04-03T16:41:28;9.00;99.90
9209;DHT22;4639;48.862;9.188;2023-04-03T16:43:53;8.90;99.90
9209;DHT22;4639;48.862;9.188;2023-04-03T16:46:19;8.70;99.90
9209;DHT22;4639;48.862;9.188;2023-04-03T16:48:52;8.40;99.90
9209;DHT22;4639;48.862;9.188;2023-04-03T16:51:18;8.40;99.90
9209;DHT22;4639;48.862;9.188;2023-04-03T16:53:43;8.30;99.90
9209;DHT22;4639;48.862;9.188;2023-04-03T16:56:09;8.20;99.90
9209;DHT22;4639;48.862;9.188;2023-04-03T16:58:35;8.10;99.90
9209;DHT22;4639;48.862;9.188;2023-04-03T17:01:13;8.10;99.90
9209;DHT22;4639;48.862;9.188;2023-04-03T17:03:39;8.10;99.90
9209;DHT22;4639;48.862;9.188;2023-04-03T17:06:05;8.10;99.90
9209;DHT22;4639;48.862;9.188;2023-04-03T17:08:30;8.00;99.90
9209;DHT22;4639;48.862;9.188;2023-04-03T17:10:56;8.00;99.90
9209;DHT22;4639;48.862;9.188;2023-04-03T17:13:22;8.00;99.90
9209;DHT22;4639;48.862;9.188;2023-04-03T17:15:48;8.00;99.90
9209;DHT22;4639;48.862;9.188;2023-04-03T17:18:13;7.90;99.90
9209;DHT22;4639;48.862;9.188;2023-04-03T17:20:40;7.80;99.90
9209;DHT22;4639;48.862;9.188;2023-04-03T17:23:06;7.70;99.90
9209;DHT22;4639;48.862;9.188;2023-04-03T17:25:31;7.70;99.90
9209;DHT22;4639;48.862;9.188;2023-04-03T17:27:57;7.60;99.90
9209;DHT22;4639;48.862;9.188;2023-04-03T17:30:32;7.50;99.90
9209;DHT22;4639;48.862;9.188;2023-04-03T17:32:57;7.50;99.90
9209;DHT22;4639;48.862;9.188;2023-04-03T17:35:23;7.50;99.90
9209;DHT22;4639;48.862;9.188;2023-04-03T17:37:48;7.50;99.90
9209;DHT22;4639;48.862;9.188;2023-04-03T17:40:17;7.40;99.90
9209;DHT22;4639;48.862;9.188;2023-04-03T17:42:43;7.40;99.90
9209;DHT22;4639;48.862;9.188;2023-04-03T17:45:09;7.40;99.90
9209;DHT22;4639;48.862;9.188;2023-04-03T17:47:34;7.40;99.90
9209;DHT22;4639;48.862;9.188;2023-04-03T17:50:00;7.20;99.90
9209;DHT22;4639;48.862;9.188;2023-04-03T17:52:28;7.20;99.90
9209;DHT22;4639;48.862;9.188;2023-04-03T17:54:56;7.20;99.90
9209;DHT22;4639;48.862;9.188;2023-04-03T17:57:21;7.20;99.90
9209;DHT22;4639;48.862;9.188;2023-04-03T17:59:47;7.20;99.90
9209;DHT22;4639;48.862;9.188;2023-04-03T18:02:13;7.20;99.90
9209;DHT22;4639;48.862;9.188;2023-04-03T18:04:38;7.20;99.90